Tuesday, September 30, 2014
11:53 UTC
  |  Log In   |  Register Free
Airport Search:

Page Field Airport
(KFMY)

FAA data valid effective September 18, 2014 - November 13, 2014 (unless otherwise noted).

 
 
 
 
 
 
 
 
 
 
 
 
 
 

Current Aviation Weather for Page Field Airport (KFMY)

The most recent METAR observation for KFMY was updated at: 1114
METAR Summary (Translated METAR)
KFMY
301053Z 00000KT 10SM CLR 24/24 A2984 RMK AO2 SLP105 T02440239
KRSW
301053Z 00000KT 10SM -RA FEW017 24/24 A2985 RMK AO2 RAB51 SLP104 P0000 T02440239
(6.5 nm SE from KFMY)
KPGD
301053Z AUTO 20003KT 10SM CLR 25/24 A2986 RMK AO2 SLP111 T02500239
(21.1 nm NW from KFMY)
TAF Summary (Translated TAF)
KFMY
300536Z 3006/0106 VRB03KT P6SM VCSH SCT020 BKN130 FM300900 VRB03KT P6SM VCSH SCT020 BKN130 FM301400 25008KT P6SM VCTS SCT025CB BKN080 FM302000 27010KT P6SM VCSH SCT035 BKN130 FM010200 VRB03KT P6SM SCT025 SCT250
KRSW
(6.5 nm SE from KFMY)
300536Z 3006/0106 VRB03KT P6SM VCSH SCT020 BKN130 FM300900 VRB03KT P6SM VCSH SCT020 BKN130 FM301400 25008KT P6SM VCTS SCT025CB BKN080 FM302000 27010KT P6SM VCSH SCT035 BKN130 FM010200 VRB03KT P6SM SCT025 SCT250
  Airport Weather Conditions for KFMY

 Current Weather at FMY
76° F
Fair
North winds at 0.0 mph
FMY NOAA Radar

Pressure: 29.84 in
Humidity: 97%
Wind: Calm
Dew Point: 75.0°F
Visibility: 10.00 mi


Airport Weather Forecast for KFMY

Translated METAR and TAF for KFMY
Translated METAR for KFMY (1148 UTC 30 September 2014)
found at http://aviationweather.gov/adds/metars/
 
METAR text: KFMY 301137Z 00000KT 10SM FEW003 24/24 A2985 RMK AO2 T02440239
Conditions at: KFMY (FORT MYERS , FL, US) observed 1137 UTC 30 September 2014
Temperature: 24.4°C (76°F)
Dewpoint: 23.9°C (75°F) [RH = 97%]
Pressure (altimeter): 29.85 inches Hg (1010.9 mb)
Winds: calm
Visibility: 10 or more miles (16+ km)
Ceiling: at least 12,000 feet AGL
Clouds: few clouds at 300 feet AGL
Weather: no significant weather observed at this time
Translated TAF for KFMY
Forecast for: KFMY (FORT MYERS , FL, US)
TAF Text: KFMY 301132Z 3012/0112 VRB03KT P6SM FEW020 BKN120
Forecast period: 1200 to 1400 UTC 30 September 2014
Forecast type: FROM: standard forecast or significant change
Winds: variable direction winds at 3 MPH (3 knots; 1.6 m/s)
Visibility: 6 or more miles (10+ km)
Ceiling: 12000 feet AGL
Clouds: few clouds at 2000 feet AGL
broken clouds at 12000 feet AGL
Weather: no significant weather forecast for this period
TAF Text: FM301400 25008KT P6SM VCTS SCT025CB BKN080
Forecast period: 1400 to 2000 UTC 30 September 2014
Forecast type: FROM: standard forecast or significant change
Winds: from the WSW (250 degrees) at 9 MPH (8 knots; 4.2 m/s)
Visibility: 6 or more miles (10+ km)
Ceiling: 8000 feet AGL
Clouds: scattered clouds at 2500 feet AGL
broken clouds at 8000 feet AGL
Weather: VCTS  (thunderstorm in vicinity)
TAF Text: FM302000 27010KT P6SM VCSH SCT035 BKN130
Forecast period: 2000 UTC 30 September 2014 to 0200 UTC 01 October 2014
Forecast type: FROM: standard forecast or significant change
Winds: from the W (270 degrees) at 12 MPH (10 knots; 5.2 m/s)
Visibility: 6 or more miles (10+ km)
Ceiling: 13000 feet AGL
Clouds: scattered clouds at 3500 feet AGL
broken clouds at 13000 feet AGL
Weather: VCSH  (showers in vicinity)
TAF Text: FM010200 VRB03KT P6SM SCT025 SCT250
Forecast period: 0200 to 1200 UTC 01 October 2014
Forecast type: FROM: standard forecast or significant change
Winds: variable direction winds at 3 MPH (3 knots; 1.6 m/s)
Visibility: 6 or more miles (10+ km)
Clouds: scattered clouds at 2500 feet AGL
scattered clouds at 25000 feet AGL
Weather: no significant weather forecast for this period

Find All Airport Services Find A Hotel Find A Rental Car Find A Golf Course Find A Restaurant $100 Hamburger



FBO's on the Field
FBO Company Facility Photos Services Transportation Aviation Fuel Prices: Prices include tax
Catering Weather Repair Courtesy Rental Type 100LL JetA JetA+ MOGAS 8087
 
Base Operations at Page Field

Currently rated 4.8 by 2 people
FS:Avfuel
Last Updated: Sep-23
Login to update fuel prices
SS:
Contact Base Operations at Page FieldMore FBO Information
 
Add another FBO Facility Photos Catering Weather Repair Courtesy Rental Type 100LL JetA JetA+ MOGAS 8087
Services Transportation Aviation Fuel Prices: Prices include tax


model-print
model-print
model-print
model-print